sensor_id;sensor_type;location;lat;lon;timestamp;pressure;altitude;pressure_sealevel;temperature;humidity
1726;BME280;41776;48.260;8.928;2024-02-15T00:01:42;52337.44;;;-145.69;68.37
1726;BME280;41776;48.260;8.928;2024-02-15T00:04:08;52278.03;;;-145.69;67.76
1726;BME280;41776;48.260;8.928;2024-02-15T00:06:38;52285.97;;;-145.69;67.30
1726;BME280;41776;48.260;8.928;2024-02-15T00:09:06;52327.53;;;-145.69;67.29
1726;BME280;41776;48.260;8.928;2024-02-15T00:11:33;52293.88;;;-145.69;67.77
1726;BME280;41776;48.260;8.928;2024-02-15T00:13:59;52289.91;;;-145.69;68.02
1726;BME280;41776;48.260;8.928;2024-02-15T00:16:26;52331.50;;;-145.69;67.62
1726;BME280;41776;48.260;8.928;2024-02-15T00:18:53;52321.59;;;-145.69;69.37
1726;BME280;41776;48.260;8.928;2024-02-15T00:21:20;52315.66;;;-145.69;67.42
1726;BME280;41776;48.260;8.928;2024-02-15T00:23:47;52319.63;;;-145.69;68.17
1726;BME280;41776;48.260;8.928;2024-02-15T00:26:14;52309.72;;;-145.69;68.12
1726;BME280;41776;48.260;8.928;2024-02-15T00:28:41;52315.66;;;-145.69;69.00
1726;BME280;41776;48.260;8.928;2024-02-15T00:31:07;52309.72;;;-145.69;69.24
1726;BME280;41776;48.260;8.928;2024-02-15T00:33:34;52317.66;;;-145.69;69.84
1726;BME280;41776;48.260;8.928;2024-02-15T00:36:01;52353.28;;;-145.69;68.92
1726;BME280;41776;48.260;8.928;2024-02-15T00:38:29;52299.81;;;-145.69;68.60
1726;BME280;41776;48.260;8.928;2024-02-15T00:40:56;52323.59;;;-145.69;69.11
1726;BME280;41776;48.260;8.928;2024-02-15T00:43:26;52291.91;;;-145.69;69.73
1726;BME280;41776;48.260;8.928;2024-02-15T00:45:52;52345.38;;;-145.69;69.81
1726;BME280;41776;48.260;8.928;2024-02-15T00:48:19;52289.91;;;-145.69;69.46
1726;BME280;41776;48.260;8.928;2024-02-15T00:50:46;52317.66;;;-145.69;69.77
1726;BME280;41776;48.260;8.928;2024-02-15T00:53:14;52297.84;;;-145.69;70.08
1726;BME280;41776;48.260;8.928;2024-02-15T00:55:41;52317.66;;;-145.69;69.99
1726;BME280;41776;48.260;8.928;2024-02-15T00:58:08;52297.84;;;-145.69;69.72
1726;BME280;41776;48.260;8.928;2024-02-15T01:00:36;52359.22;;;-145.69;71.40
1726;BME280;41776;48.260;8.928;2024-02-15T01:03:03;52274.06;;;-145.69;70.71
1726;BME280;41776;48.260;8.928;2024-02-15T01:05:30;52319.63;;;-145.69;69.79
1726;BME280;41776;48.260;8.928;2024-02-15T01:07:56;52309.72;;;-145.69;69.97
1726;BME280;41776;48.260;8.928;2024-02-15T01:10:23;52335.47;;;-145.69;69.76
1726;BME280;41776;48.260;8.928;2024-02-15T01:12:50;52353.28;;;-145.69;69.02
1726;BME280;41776;48.260;8.928;2024-02-15T01:15:16;52321.59;;;-145.69;68.42
1726;BME280;41776;48.260;8.928;2024-02-15T01:17:46;52321.59;;;-145.69;68.74
1726;BME280;41776;48.260;8.928;2024-02-15T01:20:13;52323.59;;;-145.69;69.85
1726;BME280;41776;48.260;8.928;2024-02-15T01:22:39;52309.72;;;-145.69;69.16
1726;BME280;41776;48.260;8.928;2024-02-15T01:25:06;52331.50;;;-145.69;68.91
1726;BME280;41776;48.260;8.928;2024-02-15T01:27:33;52327.53;;;-145.69;69.30
1726;BME280;41776;48.260;8.928;2024-02-15T01:30:00;52307.75;;;-145.69;69.35
1726;BME280;41776;48.260;8.928;2024-02-15T01:32:26;52363.19;;;-145.69;70.30
1726;BME280;41776;48.260;8.928;2024-02-15T01:34:54;52325.56;;;-145.69;70.23
1726;BME280;41776;48.260;8.928;2024-02-15T01:37:21;52327.53;;;-145.69;69.69
1726;BME280;41776;48.260;8.928;2024-02-15T01:39:47;52329.53;;;-145.69;71.42
1726;BME280;41776;48.260;8.928;2024-02-15T01:42:14;52331.50;;;-145.69;70.88
1726;BME280;41776;48.260;8.928;2024-02-15T01:44:43;52325.56;;;-145.69;70.46
1726;BME280;41776;48.260;8.928;2024-02-15T01:47:10;52333.47;;;-145.69;70.27
1726;BME280;41776;48.260;8.928;2024-02-15T01:49:37;52325.56;;;-145.69;69.78
1726;BME280;41776;48.260;8.928;2024-02-15T01:52:06;52329.53;;;-145.69;70.18
1726;BME280;41776;48.260;8.928;2024-02-15T01:54:34;52373.09;;;-145.69;70.06
1726;BME280;41776;48.260;8.928;2024-02-15T01:57:04;52305.75;;;-145.69;69.79
1726;BME280;41776;48.260;8.928;2024-02-15T01:59:31;52325.56;;;-145.69;70.54
1726;BME280;41776;48.260;8.928;2024-02-15T02:01:58;52333.47;;;-145.69;70.12
1726;BME280;41776;48.260;8.928;2024-02-15T02:04:24;52345.38;;;-145.69;71.20
1726;BME280;41776;48.260;8.928;2024-02-15T02:06:51;52331.50;;;-145.69;71.68
1726;BME280;41776;48.260;8.928;2024-02-15T02:09:22;52325.56;;;-145.69;71.42
1726;BME280;41776;48.260;8.928;2024-02-15T02:11:48;52339.44;;;-145.69;71.74
1726;BME280;41776;48.260;8.928;2024-02-15T02:14:16;52351.31;;;-145.69;71.16
1726;BME280;41776;48.260;8.928;2024-02-15T02:16:43;52317.66;;;-145.69;71.42
1726;BME280;41776;48.260;8.928;2024-02-15T02:19:11;52315.66;;;-145.69;71.54
1726;BME280;41776;48.260;8.928;2024-02-15T02:21:38;52329.53;;;-145.69;71.17
1726;BME280;41776;48.260;8.928;2024-02-15T02:24:11;52299.81;;;-145.69;71.42
1726;BME280;41776;48.260;8.928;2024-02-15T02:26:40;52305.75;;;-145.69;71.24
1726;BME280;41776;48.260;8.928;2024-02-15T02:29:07;52337.44;;;-145.69;72.02
1726;BME280;41776;48.260;8.928;2024-02-15T02:31:34;52339.44;;;-145.69;71.66
1726;BME280;41776;48.260;8.928;2024-02-15T02:34:00;52333.47;;;-145.69;71.67
1726;BME280;41776;48.260;8.928;2024-02-15T02:36:27;52295.84;;;-145.69;71.84
1726;BME280;41776;48.260;8.928;2024-02-15T02:38:54;52309.72;;;-145.69;71.54
1726;BME280;41776;48.260;8.928;2024-02-15T02:41:25;52339.44;;;-145.69;71.52
1726;BME280;41776;48.260;8.928;2024-02-15T02:43:53;52301.81;;;-145.69;71.47
1726;BME280;41776;48.260;8.928;2024-02-15T02:46:19;52367.16;;;-145.69;71.28
1726;BME280;41776;48.260;8.928;2024-02-15T02:48:46;52337.44;;;-145.69;72.19
1726;BME280;41776;48.260;8.928;2024-02-15T02:51:12;52349.31;;;-145.69;71.86
1726;BME280;41776;48.260;8.928;2024-02-15T02:53:39;52325.56;;;-145.69;71.79
1726;BME280;41776;48.260;8.928;2024-02-15T02:56:06;52333.47;;;-145.69;70.90
1726;BME280;41776;48.260;8.928;2024-02-15T02:58:33;52341.41;;;-145.69;70.90
1726;BME280;41776;48.260;8.928;2024-02-15T03:01:01;52331.50;;;-145.69;71.03
1726;BME280;41776;48.260;8.928;2024-02-15T03:03:28;52373.09;;;-145.69;71.63
1726;BME280;41776;48.260;8.928;2024-02-15T03:05:54;52317.66;;;-145.69;71.38
1726;BME280;41776;48.260;8.928;2024-02-15T03:08:21;52337.44;;;-145.69;71.28
1726;BME280;41776;48.260;8.928;2024-02-15T03:10:47;52313.69;;;-145.69;71.50
1726;BME280;41776;48.260;8.928;2024-02-15T03:13:14;52351.31;;;-145.69;71.80
1726;BME280;41776;48.260;8.928;2024-02-15T03:15:40;52339.44;;;-145.69;72.69
1726;BME280;41776;48.260;8.928;2024-02-15T03:18:08;52329.53;;;-145.69;72.84
1726;BME280;41776;48.260;8.928;2024-02-15T03:20:37;52325.56;;;-145.69;73.21
1726;BME280;41776;48.260;8.928;2024-02-15T03:23:03;52291.91;;;-145.69;73.60
1726;BME280;41776;48.260;8.928;2024-02-15T03:25:30;52339.44;;;-145.69;72.15
1726;BME280;41776;48.260;8.928;2024-02-15T03:27:57;52347.34;;;-145.69;71.80
1726;BME280;41776;48.260;8.928;2024-02-15T03:30:25;52349.31;;;-145.69;71.77
1726;BME280;41776;48.260;8.928;2024-02-15T03:32:54;52355.28;;;-145.69;71.98
1726;BME280;41776;48.260;8.928;2024-02-15T03:35:24;52388.94;;;-145.69;71.25
1726;BME280;41776;48.260;8.928;2024-02-15T03:37:52;52337.44;;;-145.69;71.71
1726;BME280;41776;48.260;8.928;2024-02-15T03:40:19;52347.34;;;-145.69;71.45
1726;BME280;41776;48.260;8.928;2024-02-15T03:42:46;52321.59;;;-145.69;73.34
1726;BME280;41776;48.260;8.928;2024-02-15T03:45:13;52329.53;;;-145.69;72.43
1726;BME280;41776;48.260;8.928;2024-02-15T03:47:40;52359.22;;;-145.69;72.57
1726;BME280;41776;48.260;8.928;2024-02-15T03:50:07;52285.97;;;-145.69;72.15
1726;BME280;41776;48.260;8.928;2024-02-15T03:52:36;52345.38;;;-145.69;72.43
1726;BME280;41776;48.260;8.928;2024-02-15T03:55:04;52323.59;;;-145.69;72.13
1726;BME280;41776;48.260;8.928;2024-02-15T03:57:31;52365.16;;;-145.69;72.31
1726;BME280;41776;48.260;8.928;2024-02-15T03:59:58;52335.47;;;-145.69;71.62
1726;BME280;41776;48.260;8.928;2024-02-15T04:02:25;52353.28;;;-145.69;72.36
1726;BME280;41776;48.260;8.928;2024-02-15T04:04:53;52329.53;;;-145.69;72.59
1726;BME280;41776;48.260;8.928;2024-02-15T04:07:21;52345.38;;;-145.69;72.42
1726;BME280;41776;48.260;8.928;2024-02-15T04:09:49;52341.41;;;-145.69;72.95
1726;BME280;41776;48.260;8.928;2024-02-15T04:12:15;52353.28;;;-145.69;72.40
1726;BME280;41776;48.260;8.928;2024-02-15T04:14:42;52367.16;;;-145.69;72.73
1726;BME280;41776;48.260;8.928;2024-02-15T04:17:10;52351.31;;;-145.69;72.83
1726;BME280;41776;48.260;8.928;2024-02-15T04:19:39;52333.47;;;-145.69;73.07
1726;BME280;41776;48.260;8.928;2024-02-15T04:22:05;52339.44;;;-145.69;72.54
1726;BME280;41776;48.260;8.928;2024-02-15T04:24:33;52339.44;;;-145.69;72.07
1726;BME280;41776;48.260;8.928;2024-02-15T04:27:01;52337.44;;;-145.69;73.12
1726;BME280;41776;48.260;8.928;2024-02-15T04:29:27;52329.53;;;-145.69;73.10
1726;BME280;41776;48.260;8.928;2024-02-15T04:31:54;52341.41;;;-145.69;73.02
1726;BME280;41776;48.260;8.928;2024-02-15T04:34:20;52339.44;;;-145.69;73.07
1726;BME280;41776;48.260;8.928;2024-02-15T04:36:48;52329.53;;;-145.69;72.78
1726;BME280;41776;48.260;8.928;2024-02-15T04:39:18;52373.09;;;-145.69;72.34
1726;BME280;41776;48.260;8.928;2024-02-15T04:41:49;52355.28;;;-145.69;72.27
1726;BME280;41776;48.260;8.928;2024-02-15T04:44:17;52361.22;;;-145.69;72.51
1726;BME280;41776;48.260;8.928;2024-02-15T04:46:45;52345.38;;;-145.69;72.36
1726;BME280;41776;48.260;8.928;2024-02-15T04:49:12;52333.47;;;-145.69;72.54
1726;BME280;41776;48.260;8.928;2024-02-15T04:51:38;52373.09;;;-145.69;71.89
1726;BME280;41776;48.260;8.928;2024-02-15T04:54:06;52369.13;;;-145.69;72.91
1726;BME280;41776;48.260;8.928;2024-02-15T04:56:33;52369.13;;;-145.69;73.01
1726;BME280;41776;48.260;8.928;2024-02-15T04:59:01;52333.47;;;-145.69;72.62
1726;BME280;41776;48.260;8.928;2024-02-15T05:01:29;52325.56;;;-145.69;73.05
1726;BME280;41776;48.260;8.928;2024-02-15T05:04:01;52357.25;;;-145.69;74.90
1726;BME280;41776;48.260;8.928;2024-02-15T05:06:32;52333.47;;;-145.69;74.20
1726;BME280;41776;48.260;8.928;2024-02-15T05:08:59;52361.22;;;-145.69;73.74
1726;BME280;41776;48.260;8.928;2024-02-15T05:11:26;52351.31;;;-145.69;73.80
1726;BME280;41776;48.260;8.928;2024-02-15T05:13:54;52377.06;;;-145.69;74.46
1726;BME280;41776;48.260;8.928;2024-02-15T05:16:20;52365.16;;;-145.69;73.62
1726;BME280;41776;48.260;8.928;2024-02-15T05:18:48;52341.41;;;-145.69;74.36
1726;BME280;41776;48.260;8.928;2024-02-15T05:21:17;52377.06;;;-145.69;74.24
1726;BME280;41776;48.260;8.928;2024-02-15T05:23:43;52339.44;;;-145.69;73.39
1726;BME280;41776;48.260;8.928;2024-02-15T05:26:11;52331.50;;;-145.69;74.70
1726;BME280;41776;48.260;8.928;2024-02-15T05:28:39;52357.25;;;-145.69;74.11
1726;BME280;41776;48.260;8.928;2024-02-15T05:31:10;52345.38;;;-145.69;73.15
1726;BME280;41776;48.260;8.928;2024-02-15T05:33:40;52375.06;;;-145.69;73.77
1726;BME280;41776;48.260;8.928;2024-02-15T05:36:11;52353.28;;;-145.69;73.48
1726;BME280;41776;48.260;8.928;2024-02-15T05:38:38;52343.38;;;-145.69;73.97
1726;BME280;41776;48.260;8.928;2024-02-15T05:41:04;52329.53;;;-145.69;74.54
1726;BME280;41776;48.260;8.928;2024-02-15T05:43:35;52309.72;;;-145.69;73.14
1726;BME280;41776;48.260;8.928;2024-02-15T05:46:02;52361.22;;;-145.69;73.35
1726;BME280;41776;48.260;8.928;2024-02-15T05:48:29;52339.44;;;-145.69;73.71
1726;BME280;41776;48.260;8.928;2024-02-15T05:50:56;52355.28;;;-145.69;72.71
1726;BME280;41776;48.260;8.928;2024-02-15T05:53:23;52333.47;;;-145.69;72.73
1726;BME280;41776;48.260;8.928;2024-02-15T05:55:50;52345.38;;;-145.69;73.13
1726;BME280;41776;48.260;8.928;2024-02-15T05:58:17;52353.28;;;-145.69;74.60
1726;BME280;41776;48.260;8.928;2024-02-15T06:00:43;52359.22;;;-145.69;72.91
1726;BME280;41776;48.260;8.928;2024-02-15T06:03:10;52349.31;;;-145.69;72.11
1726;BME280;41776;48.260;8.928;2024-02-15T06:05:37;52369.13;;;-145.69;72.26
1726;BME280;41776;48.260;8.928;2024-02-15T06:08:07;52359.22;;;-145.69;74.10
1726;BME280;41776;48.260;8.928;2024-02-15T06:10:35;52357.25;;;-145.69;74.76
1726;BME280;41776;48.260;8.928;2024-02-15T06:13:01;52333.47;;;-145.69;74.68
1726;BME280;41776;48.260;8.928;2024-02-15T06:15:28;52341.41;;;-145.69;74.56
1726;BME280;41776;48.260;8.928;2024-02-15T06:17:54;52345.38;;;-145.69;73.97
1726;BME280;41776;48.260;8.928;2024-02-15T06:20:22;52333.47;;;-145.69;73.42
1726;BME280;41776;48.260;8.928;2024-02-15T06:22:50;52361.22;;;-145.69;73.52
1726;BME280;41776;48.260;8.928;2024-02-15T06:25:17;52317.66;;;-145.69;74.17
1726;BME280;41776;48.260;8.928;2024-02-15T06:27:47;52321.59;;;-145.69;74.17
1726;BME280;41776;48.260;8.928;2024-02-15T06:30:16;52355.28;;;-145.69;75.40
1726;BME280;41776;48.260;8.928;2024-02-15T06:33:00;52369.13;;;-145.69;74.18
1726;BME280;41776;48.260;8.928;2024-02-15T06:35:44;52337.44;;;-145.69;73.41
1726;BME280;41776;48.260;8.928;2024-02-15T06:38:42;52341.41;;;-145.69;72.98
1726;BME280;41776;48.260;8.928;2024-02-15T06:41:26;52355.28;;;-145.69;73.44
1726;BME280;41776;48.260;8.928;2024-02-15T06:43:55;52361.22;;;-145.69;74.54
1726;BME280;41776;48.260;8.928;2024-02-15T06:46:22;52309.72;;;-145.69;74.63
1726;BME280;41776;48.260;8.928;2024-02-15T06:48:52;52287.94;;;-145.69;74.50
1726;BME280;41776;48.260;8.928;2024-02-15T06:51:19;52341.41;;;-145.69;74.43
1726;BME280;41776;48.260;8.928;2024-02-15T06:53:46;52365.16;;;-145.69;74.68
1726;BME280;41776;48.260;8.928;2024-02-15T06:56:12;52369.13;;;-145.69;74.09
1726;BME280;41776;48.260;8.928;2024-02-15T06:58:39;52345.38;;;-145.69;74.76
1726;BME280;41776;48.260;8.928;2024-02-15T07:01:08;52303.78;;;-145.69;74.32
1726;BME280;41776;48.260;8.928;2024-02-15T07:03:34;52333.47;;;-145.69;75.25
1726;BME280;41776;48.260;8.928;2024-02-15T07:06:01;52329.53;;;-145.69;74.62
1726;BME280;41776;48.260;8.928;2024-02-15T07:08:28;52349.31;;;-145.69;74.68
1726;BME280;41776;48.260;8.928;2024-02-15T07:10:55;52325.56;;;-145.69;74.84
1726;BME280;41776;48.260;8.928;2024-02-15T07:13:21;52331.50;;;-145.69;74.60
1726;BME280;41776;48.260;8.928;2024-02-15T07:15:48;52369.13;;;-145.69;74.75
1726;BME280;41776;48.260;8.928;2024-02-15T07:18:17;52327.53;;;-145.69;74.46
1726;BME280;41776;48.260;8.928;2024-02-15T07:20:45;52361.22;;;-145.69;74.03
1726;BME280;41776;48.260;8.928;2024-02-15T07:23:11;52293.88;;;-145.69;74.64
1726;BME280;41776;48.260;8.928;2024-02-15T07:25:38;52327.53;;;-145.69;73.82
1726;BME280;41776;48.260;8.928;2024-02-15T07:28:05;52317.66;;;-145.69;74.03
1726;BME280;41776;48.260;8.928;2024-02-15T07:30:33;52327.53;;;-145.69;73.60
1726;BME280;41776;48.260;8.928;2024-02-15T07:32:59;52309.72;;;-145.69;73.79
1726;BME280;41776;48.260;8.928;2024-02-15T07:35:27;52333.47;;;-145.69;73.97
1726;BME280;41776;48.260;8.928;2024-02-15T07:37:55;52337.44;;;-145.69;74.74
1726;BME280;41776;48.260;8.928;2024-02-15T07:40:25;52321.59;;;-145.69;73.96
1726;BME280;41776;48.260;8.928;2024-02-15T07:42:56;52351.31;;;-145.69;73.67
1726;BME280;41776;48.260;8.928;2024-02-15T07:45:22;52301.81;;;-145.69;73.00
1726;BME280;41776;48.260;8.928;2024-02-15T07:47:49;52301.81;;;-145.69;73.04
1726;BME280;41776;48.260;8.928;2024-02-15T07:50:16;52329.53;;;-145.69;72.56
1726;BME280;41776;48.260;8.928;2024-02-15T07:52:46;52313.69;;;-145.69;73.81
1726;BME280;41776;48.260;8.928;2024-02-15T07:55:15;52341.41;;;-145.69;74.17
1726;BME280;41776;48.260;8.928;2024-02-15T07:57:44;52329.53;;;-145.69;73.92
1726;BME280;41776;48.260;8.928;2024-02-15T08:00:12;52313.69;;;-145.69;74.17
1726;BME280;41776;48.260;8.928;2024-02-15T08:02:41;52301.81;;;-145.69;73.36
1726;BME280;41776;48.260;8.928;2024-02-15T08:05:09;52323.59;;;-145.69;74.14
1726;BME280;41776;48.260;8.928;2024-02-15T08:07:37;52329.53;;;-145.69;73.40
1726;BME280;41776;48.260;8.928;2024-02-15T08:10:08;52319.63;;;-145.69;73.78
1726;BME280;41776;48.260;8.928;2024-02-15T08:12:38;52276.06;;;-145.69;73.57
1726;BME280;41776;48.260;8.928;2024-02-15T08:15:05;52293.88;;;-145.69;73.60
1726;BME280;41776;48.260;8.928;2024-02-15T08:17:37;52282.00;;;-145.69;73.06
1726;BME280;41776;48.260;8.928;2024-02-15T08:20:05;52270.13;;;-145.69;73.13
1726;BME280;41776;48.260;8.928;2024-02-15T08:22:32;52309.72;;;-145.69;73.20
1726;BME280;41776;48.260;8.928;2024-02-15T08:24:58;52305.75;;;-145.69;73.55
1726;BME280;41776;48.260;8.928;2024-02-15T08:27:30;52325.56;;;-145.69;73.18
1726;BME280;41776;48.260;8.928;2024-02-15T08:29:57;52319.63;;;-145.69;73.55
1726;BME280;41776;48.260;8.928;2024-02-15T08:32:27;52331.50;;;-145.69;72.71
1726;BME280;41776;48.260;8.928;2024-02-15T08:34:53;52285.97;;;-145.69;73.31
1726;BME280;41776;48.260;8.928;2024-02-15T08:37:20;52291.91;;;-145.69;72.80
1726;BME280;41776;48.260;8.928;2024-02-15T08:39:50;52280.00;;;-145.69;73.59
1726;BME280;41776;48.260;8.928;2024-02-15T08:42:17;52309.72;;;-145.69;73.84
1726;BME280;41776;48.260;8.928;2024-02-15T08:44:48;52291.91;;;-145.69;73.00
1726;BME280;41776;48.260;8.928;2024-02-15T08:47:15;52283.97;;;-145.69;72.40
1726;BME280;41776;48.260;8.928;2024-02-15T08:49:41;52293.88;;;-145.69;73.15
1726;BME280;41776;48.260;8.928;2024-02-15T08:52:08;52289.91;;;-145.69;73.23
1726;BME280;41776;48.260;8.928;2024-02-15T08:54:38;52289.91;;;-145.69;70.79
1726;BME280;41776;48.260;8.928;2024-02-15T08:57:07;52270.13;;;-145.69;72.34
1726;BME280;41776;48.260;8.928;2024-02-15T08:59:34;52280.00;;;-145.69;72.71
1726;BME280;41776;48.260;8.928;2024-02-15T09:02:02;52274.06;;;-145.69;73.39
1726;BME280;41776;48.260;8.928;2024-02-15T09:04:30;52252.28;;;-145.69;73.13
1726;BME280;41776;48.260;8.928;2024-02-15T09:06:57;52246.34;;;-145.69;72.83
1726;BME280;41776;48.260;8.928;2024-02-15T09:09:26;52248.34;;;-145.69;71.78
1726;BME280;41776;48.260;8.928;2024-02-15T09:11:55;52274.06;;;-145.69;69.21
1726;BME280;41776;48.260;8.928;2024-02-15T09:14:24;52285.97;;;-145.69;67.72
1726;BME280;41776;48.260;8.928;2024-02-15T09:16:50;52230.50;;;-145.69;65.81
1726;BME280;41776;48.260;8.928;2024-02-15T09:19:18;52258.22;;;-145.69;67.99
1726;BME280;41776;48.260;8.928;2024-02-15T09:21:45;52262.19;;;-145.69;71.08
1726;BME280;41776;48.260;8.928;2024-02-15T09:24:14;52250.31;;;-145.69;71.35
1726;BME280;41776;48.260;8.928;2024-02-15T09:26:41;52232.50;;;-145.69;71.02
1726;BME280;41776;48.260;8.928;2024-02-15T09:29:07;52274.06;;;-145.69;71.62
1726;BME280;41776;48.260;8.928;2024-02-15T09:31:33;52250.31;;;-145.69;71.85
1726;BME280;41776;48.260;8.928;2024-02-15T09:34:02;52250.31;;;-145.69;69.92
1726;BME280;41776;48.260;8.928;2024-02-15T09:36:36;52250.31;;;-145.69;69.96
1726;BME280;41776;48.260;8.928;2024-02-15T09:39:03;52220.59;;;-145.69;63.71
1726;BME280;41776;48.260;8.928;2024-02-15T09:41:30;52262.19;;;-145.69;68.52
1726;BME280;41776;48.260;8.928;2024-02-15T09:43:59;52210.72;;;-145.69;67.55
1726;BME280;41776;48.260;8.928;2024-02-15T09:46:29;52208.72;;;-145.69;67.74
1726;BME280;41776;48.260;8.928;2024-02-15T09:48:56;52202.78;;;-145.69;64.93
1726;BME280;41776;48.260;8.928;2024-02-15T09:51:27;52222.59;;;-145.69;61.23
1726;BME280;41776;48.260;8.928;2024-02-15T09:53:58;52246.34;;;-145.69;61.30
1726;BME280;41776;48.260;8.928;2024-02-15T09:56:27;52244.38;;;-145.69;61.00
1726;BME280;41776;48.260;8.928;2024-02-15T09:59:05;52196.84;;;-145.69;57.13
1726;BME280;41776;48.260;8.928;2024-02-15T10:01:34;52214.66;;;-145.69;58.43
1726;BME280;41776;48.260;8.928;2024-02-15T10:04:04;52206.75;;;-145.69;53.39
1726;BME280;41776;48.260;8.928;2024-02-15T10:06:40;52192.88;;;-145.69;52.91
1726;BME280;41776;48.260;8.928;2024-02-15T10:09:25;52194.88;;;-145.69;51.62
1726;BME280;41776;48.260;8.928;2024-02-15T10:11:54;52202.78;;;-145.69;50.83
1726;BME280;41776;48.260;8.928;2024-02-15T10:14:23;52202.78;;;-145.69;47.25
1726;BME280;41776;48.260;8.928;2024-02-15T10:16:50;52194.88;;;-145.69;47.11
1726;BME280;41776;48.260;8.928;2024-02-15T10:19:18;52196.84;;;-145.69;47.00
1726;BME280;41776;48.260;8.928;2024-02-15T10:21:46;52169.13;;;-145.69;46.47
1726;BME280;41776;48.260;8.928;2024-02-15T10:24:12;52200.81;;;-145.69;46.68
1726;BME280;41776;48.260;8.928;2024-02-15T10:26:48;52159.22;;;-145.69;44.97
1726;BME280;41776;48.260;8.928;2024-02-15T10:29:35;52188.91;;;-145.69;45.00
1726;BME280;41776;48.260;8.928;2024-02-15T10:32:05;52186.94;;;-145.69;46.03
1726;BME280;41776;48.260;8.928;2024-02-15T10:34:43;52159.22;;;-145.69;44.30
1726;BME280;41776;48.260;8.928;2024-02-15T10:37:13;52167.13;;;-145.69;43.43
1726;BME280;41776;48.260;8.928;2024-02-15T10:40:05;52202.78;;;-145.69;43.41
1726;BME280;41776;48.260;8.928;2024-02-15T10:42:34;52159.22;;;-145.69;43.25
1726;BME280;41776;48.260;8.928;2024-02-15T10:45:05;52165.16;;;-145.69;42.80
1726;BME280;41776;48.260;8.928;2024-02-15T10:47:37;52141.41;;;-145.69;42.58
1726;BME280;41776;48.260;8.928;2024-02-15T10:50:06;52151.28;;;-145.69;42.16
1726;BME280;41776;48.260;8.928;2024-02-15T10:52:51;52175.06;;;-145.69;41.55
1726;BME280;41776;48.260;8.928;2024-02-15T10:55:26;52167.13;;;-145.69;41.87
1726;BME280;41776;48.260;8.928;2024-02-15T10:58:00;52155.25;;;-145.69;41.66
1726;BME280;41776;48.260;8.928;2024-02-15T11:00:30;52171.09;;;-145.69;41.46
1726;BME280;41776;48.260;8.928;2024-02-15T11:03:03;52173.09;;;-145.69;41.34
1726;BME280;41776;48.260;8.928;2024-02-15T11:05:35;52214.66;;;-145.69;41.44
1726;BME280;41776;48.260;8.928;2024-02-15T11:08:04;52167.13;;;-145.69;40.58
1726;BME280;41776;48.260;8.928;2024-02-15T11:10:32;52161.19;;;-145.69;41.36
1726;BME280;41776;48.260;8.928;2024-02-15T11:13:01;52143.38;;;-145.69;41.39
1726;BME280;41776;48.260;8.928;2024-02-15T11:15:47;52163.19;;;-145.69;41.09
1726;BME280;41776;48.260;8.928;2024-02-15T11:18:41;52161.19;;;-145.69;40.58
1726;BME280;41776;48.260;8.928;2024-02-15T11:21:52;52131.50;;;-145.69;40.36
1726;BME280;41776;48.260;8.928;2024-02-15T11:24:25;52125.56;;;-145.69;39.79
1726;BME280;41776;48.260;8.928;2024-02-15T11:26:57;52143.38;;;-145.69;39.78
1726;BME280;41776;48.260;8.928;2024-02-15T11:29:52;52143.38;;;-145.69;39.09
1726;BME280;41776;48.260;8.928;2024-02-15T11:32:36;52131.50;;;-145.69;38.88
1726;BME280;41776;48.260;8.928;2024-02-15T11:35:06;52133.47;;;-145.69;38.29
1726;BME280;41776;48.260;8.928;2024-02-15T11:37:50;52143.38;;;-145.69;37.93
1726;BME280;41776;48.260;8.928;2024-02-15T11:40:19;52117.63;;;-145.69;38.36
1726;BME280;41776;48.260;8.928;2024-02-15T11:42:48;52107.72;;;-145.69;38.04
1726;BME280;41776;48.260;8.928;2024-02-15T11:45:16;52127.53;;;-145.69;38.24
1726;BME280;41776;48.260;8.928;2024-02-15T11:47:47;52115.66;;;-145.69;38.04
1726;BME280;41776;48.260;8.928;2024-02-15T11:50:20;52101.78;;;-145.69;36.74
1726;BME280;41776;48.260;8.928;2024-02-15T11:52:51;52123.56;;;-145.69;36.74
1726;BME280;41776;48.260;8.928;2024-02-15T11:55:20;52119.63;;;-145.69;36.56
1726;BME280;41776;48.260;8.928;2024-02-15T11:57:57;52127.53;;;-145.69;36.30
1726;BME280;41776;48.260;8.928;2024-02-15T12:00:38;52135.47;;;-145.69;37.23
1726;BME280;41776;48.260;8.928;2024-02-15T12:03:27;52099.81;;;-145.69;36.45
1726;BME280;41776;48.260;8.928;2024-02-15T12:06:12;52119.63;;;-145.69;35.97
1726;BME280;41776;48.260;8.928;2024-02-15T12:08:59;52117.63;;;-145.69;36.10
1726;BME280;41776;48.260;8.928;2024-02-15T12:11:53;52087.94;;;-145.69;35.98
1726;BME280;41776;48.260;8.928;2024-02-15T12:14:40;52087.94;;;-145.69;36.19
1726;BME280;41776;48.260;8.928;2024-02-15T12:17:25;52091.88;;;-145.69;35.84
1726;BME280;41776;48.260;8.928;2024-02-15T12:20:14;52097.84;;;-145.69;35.91
1726;BME280;41776;48.260;8.928;2024-02-15T12:22:46;52099.81;;;-145.69;35.86
1726;BME280;41776;48.260;8.928;2024-02-15T12:25:15;52105.75;;;-145.69;35.55
1726;BME280;41776;48.260;8.928;2024-02-15T12:27:52;52103.78;;;-145.69;35.47
1726;BME280;41776;48.260;8.928;2024-02-15T12:30:19;52093.88;;;-145.69;36.11
1726;BME280;41776;48.260;8.928;2024-02-15T12:32:52;52052.28;;;-145.69;35.43
1726;BME280;41776;48.260;8.928;2024-02-15T12:35:36;52052.28;;;-145.69;35.00
1726;BME280;41776;48.260;8.928;2024-02-15T12:38:05;52072.09;;;-145.69;35.13
1726;BME280;41776;48.260;8.928;2024-02-15T12:40:35;52044.38;;;-145.69;35.37
1726;BME280;41776;48.260;8.928;2024-02-15T12:43:02;52083.97;;;-145.69;35.13
1726;BME280;41776;48.260;8.928;2024-02-15T12:45:35;52054.25;;;-145.69;34.44
1726;BME280;41776;48.260;8.928;2024-02-15T12:48:06;52066.16;;;-145.69;33.44
1726;BME280;41776;48.260;8.928;2024-02-15T12:50:35;52028.53;;;-145.69;33.54
1726;BME280;41776;48.260;8.928;2024-02-15T12:53:04;52060.22;;;-145.69;32.95
1726;BME280;41776;48.260;8.928;2024-02-15T12:55:31;52032.47;;;-145.69;32.99
1726;BME280;41776;48.260;8.928;2024-02-15T12:58:00;52040.41;;;-145.69;32.94
1726;BME280;41776;48.260;8.928;2024-02-15T13:00:32;52056.25;;;-145.69;32.88
1726;BME280;41776;48.260;8.928;2024-02-15T13:03:06;52044.38;;;-145.69;32.60